sensor_id;sensor_type;location;lat;lon;timestamp;temperature;humidity
52459;DHT22;38372;52.902;6.024;2024-01-30T00:01:43;6.60;99.90
52459;DHT22;38372;52.902;6.024;2024-01-30T00:04:08;6.60;99.90
52459;DHT22;38372;52.902;6.024;2024-01-30T00:06:34;6.60;99.90
52459;DHT22;38372;52.902;6.024;2024-01-30T00:09:00;6.60;99.90
52459;DHT22;38372;52.902;6.024;2024-01-30T00:11:26;6.60;99.90
52459;DHT22;38372;52.902;6.024;2024-01-30T00:13:52;6.60;99.90
52459;DHT22;38372;52.902;6.024;2024-01-30T00:16:22;6.60;99.90
52459;DHT22;38372;52.902;6.024;2024-01-30T00:18:52;6.60;99.90
52459;DHT22;38372;52.902;6.024;2024-01-30T00:21:19;6.60;99.90
52459;DHT22;38372;52.902;6.024;2024-01-30T00:23:45;6.60;99.90
52459;DHT22;38372;52.902;6.024;2024-01-30T00:26:11;6.60;99.90
52459;DHT22;38372;52.902;6.024;2024-01-30T00:28:38;6.60;99.90
52459;DHT22;38372;52.902;6.024;2024-01-30T00:31:04;6.50;99.90
52459;DHT22;38372;52.902;6.024;2024-01-30T00:33:30;6.50;99.90
52459;DHT22;38372;52.902;6.024;2024-01-30T00:35:56;6.50;99.90
52459;DHT22;38372;52.902;6.024;2024-01-30T00:38:22;6.50;99.90
52459;DHT22;38372;52.902;6.024;2024-01-30T00:40:48;6.50;99.90
52459;DHT22;38372;52.902;6.024;2024-01-30T00:43:15;6.50;99.90
52459;DHT22;38372;52.902;6.024;2024-01-30T00:45:41;6.50;99.90
52459;DHT22;38372;52.902;6.024;2024-01-30T00:48:07;6.50;99.90
52459;DHT22;38372;52.902;6.024;2024-01-30T00:50:33;6.40;99.90
52459;DHT22;38372;52.902;6.024;2024-01-30T00:52:58;6.50;99.90
52459;DHT22;38372;52.902;6.024;2024-01-30T00:55:24;6.50;99.90
52459;DHT22;38372;52.902;6.024;2024-01-30T00:57:50;6.40;99.90
52459;DHT22;38372;52.902;6.024;2024-01-30T01:00:16;6.30;99.90
52459;DHT22;38372;52.902;6.024;2024-01-30T01:02:43;6.30;99.90
52459;DHT22;38372;52.902;6.024;2024-01-30T01:05:09;6.30;99.90
52459;DHT22;38372;52.902;6.024;2024-01-30T01:07:35;6.30;99.90
52459;DHT22;38372;52.902;6.024;2024-01-30T01:10:01;6.30;99.90
52459;DHT22;38372;52.902;6.024;2024-01-30T01:12:26;6.30;99.90
52459;DHT22;38372;52.902;6.024;2024-01-30T01:14:52;6.40;99.90
52459;DHT22;38372;52.902;6.024;2024-01-30T01:17:18;6.30;99.90
52459;DHT22;38372;52.902;6.024;2024-01-30T01:19:44;6.30;99.90
52459;DHT22;38372;52.902;6.024;2024-01-30T01:22:10;6.30;99.90
52459;DHT22;38372;52.902;6.024;2024-01-30T01:24:36;6.40;99.90
52459;DHT22;38372;52.902;6.024;2024-01-30T01:27:02;6.40;99.90
52459;DHT22;38372;52.902;6.024;2024-01-30T01:29:28;6.30;99.90
52459;DHT22;38372;52.902;6.024;2024-01-30T01:31:57;6.30;99.90
52459;DHT22;38372;52.902;6.024;2024-01-30T01:34:24;6.30;99.90
52459;DHT22;38372;52.902;6.024;2024-01-30T01:36:50;6.30;99.90
52459;DHT22;38372;52.902;6.024;2024-01-30T01:39:16;6.30;99.90
52459;DHT22;38372;52.902;6.024;2024-01-30T01:41:42;6.30;99.90
52459;DHT22;38372;52.902;6.024;2024-01-30T01:44:08;6.30;99.90
52459;DHT22;38372;52.902;6.024;2024-01-30T01:46:35;6.30;99.90
52459;DHT22;38372;52.902;6.024;2024-01-30T01:49:02;6.30;99.90
52459;DHT22;38372;52.902;6.024;2024-01-30T01:51:31;6.30;99.90
52459;DHT22;38372;52.902;6.024;2024-01-30T01:54:01;6.30;99.90
52459;DHT22;38372;52.902;6.024;2024-01-30T01:56:28;6.30;99.90
52459;DHT22;38372;52.902;6.024;2024-01-30T01:58:55;6.30;99.90
52459;DHT22;38372;52.902;6.024;2024-01-30T02:01:24;6.30;99.90
52459;DHT22;38372;52.902;6.024;2024-01-30T02:03:50;6.30;99.90
52459;DHT22;38372;52.902;6.024;2024-01-30T02:06:16;6.30;99.90
52459;DHT22;38372;52.902;6.024;2024-01-30T02:08:43;6.30;99.90
52459;DHT22;38372;52.902;6.024;2024-01-30T02:11:09;6.20;99.90
52459;DHT22;38372;52.902;6.024;2024-01-30T02:13:38;6.20;99.90
52459;DHT22;38372;52.902;6.024;2024-01-30T02:16:04;6.20;99.90
52459;DHT22;38372;52.902;6.024;2024-01-30T02:18:30;6.20;99.90
52459;DHT22;38372;52.902;6.024;2024-01-30T02:20:56;6.20;99.90
52459;DHT22;38372;52.902;6.024;2024-01-30T02:23:24;6.20;99.90
52459;DHT22;38372;52.902;6.024;2024-01-30T02:25:51;6.30;99.90
52459;DHT22;38372;52.902;6.024;2024-01-30T02:28:19;6.20;99.90
52459;DHT22;38372;52.902;6.024;2024-01-30T02:30:46;6.30;99.90
52459;DHT22;38372;52.902;6.024;2024-01-30T02:33:12;6.30;99.90
52459;DHT22;38372;52.902;6.024;2024-01-30T02:35:38;6.30;99.90
52459;DHT22;38372;52.902;6.024;2024-01-30T02:38:04;6.30;99.90
52459;DHT22;38372;52.902;6.024;2024-01-30T02:40:31;6.30;99.90
52459;DHT22;38372;52.902;6.024;2024-01-30T02:42:58;6.30;99.90
52459;DHT22;38372;52.902;6.024;2024-01-30T02:45:24;6.30;99.90
52459;DHT22;38372;52.902;6.024;2024-01-30T02:47:50;6.30;99.90
52459;DHT22;38372;52.902;6.024;2024-01-30T02:50:16;6.30;99.90
52459;DHT22;38372;52.902;6.024;2024-01-30T02:52:42;6.30;99.90
52459;DHT22;38372;52.902;6.024;2024-01-30T02:55:11;6.30;99.90
52459;DHT22;38372;52.902;6.024;2024-01-30T02:57:38;6.40;99.90
52459;DHT22;38372;52.902;6.024;2024-01-30T03:00:04;6.40;99.90
52459;DHT22;38372;52.902;6.024;2024-01-30T03:02:32;6.50;99.90
52459;DHT22;38372;52.902;6.024;2024-01-30T03:04:59;6.50;99.90
52459;DHT22;38372;52.902;6.024;2024-01-30T03:07:25;6.60;99.90
52459;DHT22;38372;52.902;6.024;2024-01-30T03:09:51;6.60;99.90
52459;DHT22;38372;52.902;6.024;2024-01-30T03:12:17;6.60;99.90
52459;DHT22;38372;52.902;6.024;2024-01-30T03:14:42;6.60;99.90
52459;DHT22;38372;52.902;6.024;2024-01-30T03:17:08;6.60;99.90
52459;DHT22;38372;52.902;6.024;2024-01-30T03:19:34;6.60;99.90
52459;DHT22;38372;52.902;6.024;2024-01-30T03:22:00;6.60;99.90
52459;DHT22;38372;52.902;6.024;2024-01-30T03:24:26;6.70;99.90
52459;DHT22;38372;52.902;6.024;2024-01-30T03:26:52;6.60;99.90
52459;DHT22;38372;52.902;6.024;2024-01-30T03:29:18;6.60;99.90
52459;DHT22;38372;52.902;6.024;2024-01-30T03:31:44;6.70;99.90
52459;DHT22;38372;52.902;6.024;2024-01-30T03:34:10;6.70;99.90
52459;DHT22;38372;52.902;6.024;2024-01-30T03:36:35;6.80;99.90
52459;DHT22;38372;52.902;6.024;2024-01-30T03:39:01;6.80;99.90
52459;DHT22;38372;52.902;6.024;2024-01-30T03:41:27;6.90;99.90
52459;DHT22;38372;52.902;6.024;2024-01-30T03:43:53;6.90;99.90
52459;DHT22;38372;52.902;6.024;2024-01-30T03:46:19;6.90;99.90
52459;DHT22;38372;52.902;6.024;2024-01-30T03:48:48;7.00;99.90
52459;DHT22;38372;52.902;6.024;2024-01-30T03:51:15;6.90;99.90
52459;DHT22;38372;52.902;6.024;2024-01-30T03:53:42;7.00;99.90
52459;DHT22;38372;52.902;6.024;2024-01-30T03:56:08;7.00;99.90
52459;DHT22;38372;52.902;6.024;2024-01-30T03:58:34;7.00;99.90
52459;DHT22;38372;52.902;6.024;2024-01-30T04:01:00;7.00;99.90
52459;DHT22;38372;52.902;6.024;2024-01-30T04:03:26;7.00;99.90
52459;DHT22;38372;52.902;6.024;2024-01-30T04:05:53;6.90;99.90
52459;DHT22;38372;52.902;6.024;2024-01-30T04:08:19;7.00;99.90
52459;DHT22;38372;52.902;6.024;2024-01-30T04:10:44;7.00;99.90
52459;DHT22;38372;52.902;6.024;2024-01-30T04:13:10;7.00;99.90
52459;DHT22;38372;52.902;6.024;2024-01-30T04:15:36;7.00;99.90
52459;DHT22;38372;52.902;6.024;2024-01-30T04:18:02;7.00;99.90
52459;DHT22;38372;52.902;6.024;2024-01-30T04:20:28;7.00;99.90
52459;DHT22;38372;52.902;6.024;2024-01-30T04:22:54;7.00;99.90
52459;DHT22;38372;52.902;6.024;2024-01-30T04:25:20;7.00;99.90
52459;DHT22;38372;52.902;6.024;2024-01-30T04:27:46;7.00;99.90
52459;DHT22;38372;52.902;6.024;2024-01-30T04:30:12;7.00;99.90
52459;DHT22;38372;52.902;6.024;2024-01-30T04:32:38;7.00;99.90
52459;DHT22;38372;52.902;6.024;2024-01-30T04:35:04;7.10;99.90
52459;DHT22;38372;52.902;6.024;2024-01-30T04:37:30;7.10;99.90
52459;DHT22;38372;52.902;6.024;2024-01-30T04:39:56;7.10;99.90
52459;DHT22;38372;52.902;6.024;2024-01-30T04:42:22;7.10;99.90
52459;DHT22;38372;52.902;6.024;2024-01-30T04:44:48;7.10;99.90
52459;DHT22;38372;52.902;6.024;2024-01-30T04:47:13;7.20;99.90
52459;DHT22;38372;52.902;6.024;2024-01-30T04:49:39;7.20;99.90
52459;DHT22;38372;52.902;6.024;2024-01-30T04:52:08;7.20;99.90
52459;DHT22;38372;52.902;6.024;2024-01-30T04:54:35;7.20;99.90
52459;DHT22;38372;52.902;6.024;2024-01-30T04:57:01;7.20;99.90
52459;DHT22;38372;52.902;6.024;2024-01-30T04:59:27;7.20;99.90
52459;DHT22;38372;52.902;6.024;2024-01-30T05:01:53;7.20;99.90
52459;DHT22;38372;52.902;6.024;2024-01-30T05:04:19;7.20;99.90
52459;DHT22;38372;52.902;6.024;2024-01-30T05:06:45;7.20;99.90
52459;DHT22;38372;52.902;6.024;2024-01-30T05:09:11;7.20;99.90
52459;DHT22;38372;52.902;6.024;2024-01-30T05:11:41;7.20;99.90
52459;DHT22;38372;52.902;6.024;2024-01-30T05:14:07;7.10;99.90
52459;DHT22;38372;52.902;6.024;2024-01-30T05:16:34;7.10;99.90
52459;DHT22;38372;52.902;6.024;2024-01-30T05:19:00;7.10;99.90
52459;DHT22;38372;52.902;6.024;2024-01-30T05:21:26;7.10;99.90
52459;DHT22;38372;52.902;6.024;2024-01-30T05:23:52;7.20;99.90
52459;DHT22;38372;52.902;6.024;2024-01-30T05:26:18;7.20;99.90
52459;DHT22;38372;52.902;6.024;2024-01-30T05:28:44;7.10;99.90
52459;DHT22;38372;52.902;6.024;2024-01-30T05:31:10;7.10;99.90
52459;DHT22;38372;52.902;6.024;2024-01-30T05:33:42;7.10;99.90
52459;DHT22;38372;52.902;6.024;2024-01-30T05:36:11;7.10;99.90
52459;DHT22;38372;52.902;6.024;2024-01-30T05:38:37;7.00;99.90
52459;DHT22;38372;52.902;6.024;2024-01-30T05:41:03;7.00;99.90
52459;DHT22;38372;52.902;6.024;2024-01-30T05:43:28;7.00;99.90
52459;DHT22;38372;52.902;6.024;2024-01-30T05:45:54;7.00;99.90
52459;DHT22;38372;52.902;6.024;2024-01-30T05:48:20;7.00;99.90
52459;DHT22;38372;52.902;6.024;2024-01-30T05:50:46;7.00;99.90
52459;DHT22;38372;52.902;6.024;2024-01-30T05:53:12;7.00;99.90
52459;DHT22;38372;52.902;6.024;2024-01-30T05:55:38;7.00;99.90
52459;DHT22;38372;52.902;6.024;2024-01-30T05:58:03;7.10;99.90
52459;DHT22;38372;52.902;6.024;2024-01-30T06:00:29;7.10;99.90
52459;DHT22;38372;52.902;6.024;2024-01-30T06:02:55;7.10;99.90
52459;DHT22;38372;52.902;6.024;2024-01-30T06:05:21;7.10;99.90
52459;DHT22;38372;52.902;6.024;2024-01-30T06:07:47;7.20;99.90
52459;DHT22;38372;52.902;6.024;2024-01-30T06:10:13;7.20;99.90
52459;DHT22;38372;52.902;6.024;2024-01-30T06:12:39;7.20;99.90
52459;DHT22;38372;52.902;6.024;2024-01-30T06:15:05;7.30;99.90
52459;DHT22;38372;52.902;6.024;2024-01-30T06:17:32;7.30;99.90
52459;DHT22;38372;52.902;6.024;2024-01-30T06:19:58;7.30;99.90
52459;DHT22;38372;52.902;6.024;2024-01-30T06:22:24;7.30;99.90
52459;DHT22;38372;52.902;6.024;2024-01-30T06:24:49;7.40;99.90
52459;DHT22;38372;52.902;6.024;2024-01-30T06:27:16;7.40;99.90
52459;DHT22;38372;52.902;6.024;2024-01-30T06:29:43;7.40;99.90
52459;DHT22;38372;52.902;6.024;2024-01-30T06:32:09;7.40;99.90
52459;DHT22;38372;52.902;6.024;2024-01-30T06:34:35;7.40;99.90
52459;DHT22;38372;52.902;6.024;2024-01-30T06:37:01;7.40;99.90
52459;DHT22;38372;52.902;6.024;2024-01-30T06:39:27;7.50;99.90
52459;DHT22;38372;52.902;6.024;2024-01-30T06:41:53;7.50;99.90
52459;DHT22;38372;52.902;6.024;2024-01-30T06:44:19;7.50;99.90
52459;DHT22;38372;52.902;6.024;2024-01-30T06:46:44;7.50;99.90
52459;DHT22;38372;52.902;6.024;2024-01-30T06:49:10;7.50;99.90
52459;DHT22;38372;52.902;6.024;2024-01-30T06:51:36;7.50;99.90
52459;DHT22;38372;52.902;6.024;2024-01-30T06:54:02;7.50;99.90
52459;DHT22;38372;52.902;6.024;2024-01-30T06:56:28;7.50;99.90
52459;DHT22;38372;52.902;6.024;2024-01-30T06:58:54;7.50;99.90
52459;DHT22;38372;52.902;6.024;2024-01-30T07:01:20;7.50;99.90
52459;DHT22;38372;52.902;6.024;2024-01-30T07:03:46;7.60;99.90
52459;DHT22;38372;52.902;6.024;2024-01-30T07:06:12;7.60;99.90
52459;DHT22;38372;52.902;6.024;2024-01-30T07:08:38;7.60;99.90
52459;DHT22;38372;52.902;6.024;2024-01-30T07:11:06;7.60;99.90
52459;DHT22;38372;52.902;6.024;2024-01-30T07:13:32;7.70;99.90
52459;DHT22;38372;52.902;6.024;2024-01-30T07:15:58;7.70;99.90
52459;DHT22;38372;52.902;6.024;2024-01-30T07:18:24;7.70;99.90
52459;DHT22;38372;52.902;6.024;2024-01-30T07:20:50;7.80;99.90
52459;DHT22;38372;52.902;6.024;2024-01-30T07:23:16;7.80;99.90
52459;DHT22;38372;52.902;6.024;2024-01-30T07:25:43;7.80;99.90
52459;DHT22;38372;52.902;6.024;2024-01-30T07:28:10;7.80;99.90
52459;DHT22;38372;52.902;6.024;2024-01-30T07:30:37;7.80;99.90
52459;DHT22;38372;52.902;6.024;2024-01-30T07:33:03;7.80;99.90
52459;DHT22;38372;52.902;6.024;2024-01-30T07:35:29;7.80;99.90
52459;DHT22;38372;52.902;6.024;2024-01-30T07:37:55;7.90;99.90
52459;DHT22;38372;52.902;6.024;2024-01-30T07:40:20;7.90;99.90
52459;DHT22;38372;52.902;6.024;2024-01-30T07:42:48;7.90;99.90
52459;DHT22;38372;52.902;6.024;2024-01-30T07:45:14;7.90;99.90
52459;DHT22;38372;52.902;6.024;2024-01-30T07:47:40;8.00;99.90
52459;DHT22;38372;52.902;6.024;2024-01-30T07:50:06;8.00;99.90
52459;DHT22;38372;52.902;6.024;2024-01-30T07:52:32;7.90;99.90
52459;DHT22;38372;52.902;6.024;2024-01-30T07:54:58;8.00;99.90
52459;DHT22;38372;52.902;6.024;2024-01-30T07:57:24;8.00;99.90
52459;DHT22;38372;52.902;6.024;2024-01-30T07:59:50;8.00;99.90
52459;DHT22;38372;52.902;6.024;2024-01-30T08:02:16;8.00;99.90
52459;DHT22;38372;52.902;6.024;2024-01-30T08:04:41;7.90;99.90
52459;DHT22;38372;52.902;6.024;2024-01-30T08:07:07;8.00;99.90
52459;DHT22;38372;52.902;6.024;2024-01-30T08:09:33;8.00;99.90
52459;DHT22;38372;52.902;6.024;2024-01-30T08:11:59;8.00;99.90
52459;DHT22;38372;52.902;6.024;2024-01-30T08:14:24;8.00;99.90
52459;DHT22;38372;52.902;6.024;2024-01-30T08:16:51;8.00;99.90
52459;DHT22;38372;52.902;6.024;2024-01-30T08:19:17;8.00;99.90
52459;DHT22;38372;52.902;6.024;2024-01-30T08:21:43;8.10;99.90
52459;DHT22;38372;52.902;6.024;2024-01-30T08:24:09;8.10;99.90
52459;DHT22;38372;52.902;6.024;2024-01-30T08:26:35;8.10;99.90
52459;DHT22;38372;52.902;6.024;2024-01-30T08:29:01;8.10;99.90
52459;DHT22;38372;52.902;6.024;2024-01-30T08:31:27;8.10;99.90
52459;DHT22;38372;52.902;6.024;2024-01-30T08:33:53;8.20;99.90
52459;DHT22;38372;52.902;6.024;2024-01-30T08:36:19;8.20;99.90
52459;DHT22;38372;52.902;6.024;2024-01-30T08:38:45;8.20;99.90
52459;DHT22;38372;52.902;6.024;2024-01-30T08:41:11;8.20;99.90
52459;DHT22;38372;52.902;6.024;2024-01-30T08:43:37;8.20;99.90
52459;DHT22;38372;52.902;6.024;2024-01-30T08:46:03;8.30;99.90
52459;DHT22;38372;52.902;6.024;2024-01-30T08:48:29;8.30;99.90
52459;DHT22;38372;52.902;6.024;2024-01-30T08:50:55;8.30;99.90
52459;DHT22;38372;52.902;6.024;2024-01-30T08:53:21;8.40;99.90
52459;DHT22;38372;52.902;6.024;2024-01-30T08:55:46;8.40;99.90
52459;DHT22;38372;52.902;6.024;2024-01-30T08:58:12;8.50;99.90
52459;DHT22;38372;52.902;6.024;2024-01-30T09:00:38;8.50;99.90
52459;DHT22;38372;52.902;6.024;2024-01-30T09:03:04;8.60;99.90
52459;DHT22;38372;52.902;6.024;2024-01-30T09:05:30;8.70;99.90
52459;DHT22;38372;52.902;6.024;2024-01-30T09:07:56;8.70;99.90
52459;DHT22;38372;52.902;6.024;2024-01-30T09:10:21;8.80;99.90
52459;DHT22;38372;52.902;6.024;2024-01-30T09:12:47;8.90;99.90
52459;DHT22;38372;52.902;6.024;2024-01-30T09:15:13;8.90;99.90
52459;DHT22;38372;52.902;6.024;2024-01-30T09:17:39;8.90;99.90
52459;DHT22;38372;52.902;6.024;2024-01-30T09:20:06;9.00;99.90
52459;DHT22;38372;52.902;6.024;2024-01-30T09:22:32;9.00;99.90
52459;DHT22;38372;52.902;6.024;2024-01-30T09:24:58;9.10;99.90
52459;DHT22;38372;52.902;6.024;2024-01-30T09:27:24;9.10;99.90
52459;DHT22;38372;52.902;6.024;2024-01-30T09:29:49;9.20;99.90
52459;DHT22;38372;52.902;6.024;2024-01-30T09:32:15;9.30;99.90
52459;DHT22;38372;52.902;6.024;2024-01-30T09:34:43;9.30;99.90
52459;DHT22;38372;52.902;6.024;2024-01-30T09:37:09;9.30;99.90
52459;DHT22;38372;52.902;6.024;2024-01-30T09:39:34;9.40;99.90
52459;DHT22;38372;52.902;6.024;2024-01-30T09:42:34;9.40;99.90
52459;DHT22;38372;52.902;6.024;2024-01-30T09:45:03;9.50;99.90
52459;DHT22;38372;52.902;6.024;2024-01-30T09:47:40;9.60;99.90
52459;DHT22;38372;52.902;6.024;2024-01-30T09:50:09;9.80;99.90
52459;DHT22;38372;52.902;6.024;2024-01-30T09:52:35;9.80;99.90
52459;DHT22;38372;52.902;6.024;2024-01-30T09:55:02;9.80;99.90
52459;DHT22;38372;52.902;6.024;2024-01-30T09:57:28;9.90;99.90
52459;DHT22;38372;52.902;6.024;2024-01-30T09:59:54;9.90;99.90
52459;DHT22;38372;52.902;6.024;2024-01-30T10:02:20;9.90;99.90
52459;DHT22;38372;52.902;6.024;2024-01-30T10:04:51;9.90;99.90
52459;DHT22;38372;52.902;6.024;2024-01-30T10:07:18;9.90;99.90
52459;DHT22;38372;52.902;6.024;2024-01-30T10:09:44;9.90;99.90
52459;DHT22;38372;52.902;6.024;2024-01-30T10:12:10;9.90;99.90
52459;DHT22;38372;52.902;6.024;2024-01-30T10:14:40;9.90;99.90
52459;DHT22;38372;52.902;6.024;2024-01-30T10:17:10;9.90;99.90
52459;DHT22;38372;52.902;6.024;2024-01-30T10:19:37;10.00;99.90
52459;DHT22;38372;52.902;6.024;2024-01-30T10:22:04;10.00;99.90
52459;DHT22;38372;52.902;6.024;2024-01-30T10:24:30;10.00;99.90
52459;DHT22;38372;52.902;6.024;2024-01-30T10:26:56;10.00;99.90
52459;DHT22;38372;52.902;6.024;2024-01-30T10:29:22;10.10;99.90
52459;DHT22;38372;52.902;6.024;2024-01-30T10:32:06;10.10;99.90
52459;DHT22;38372;52.902;6.024;2024-01-30T10:34:32;10.20;99.90
52459;DHT22;38372;52.902;6.024;2024-01-30T10:37:10;10.20;99.90
52459;DHT22;38372;52.902;6.024;2024-01-30T10:39:41;10.30;99.90
52459;DHT22;38372;52.902;6.024;2024-01-30T10:42:15;10.40;99.90
52459;DHT22;38372;52.902;6.024;2024-01-30T10:47:25;10.50;99.90
52459;DHT22;38372;52.902;6.024;2024-01-30T10:49:51;10.50;99.90
52459;DHT22;38372;52.902;6.024;2024-01-30T10:52:18;10.60;99.90
52459;DHT22;38372;52.902;6.024;2024-01-30T10:54:46;10.60;99.90
52459;DHT22;38372;52.902;6.024;2024-01-30T10:57:13;10.60;99.90
52459;DHT22;38372;52.902;6.024;2024-01-30T10:59:41;10.60;99.90
52459;DHT22;38372;52.902;6.024;2024-01-30T11:02:08;10.50;99.90
52459;DHT22;38372;52.902;6.024;2024-01-30T11:04:40;10.40;99.90
52459;DHT22;38372;52.902;6.024;2024-01-30T11:07:24;10.30;99.90
52459;DHT22;38372;52.902;6.024;2024-01-30T11:09:51;10.20;99.90
52459;DHT22;38372;52.902;6.024;2024-01-30T11:12:20;10.20;99.90
52459;DHT22;38372;52.902;6.024;2024-01-30T11:14:46;10.10;99.90
52459;DHT22;38372;52.902;6.024;2024-01-30T11:17:12;10.10;99.90
52459;DHT22;38372;52.902;6.024;2024-01-30T11:19:38;10.10;99.90
52459;DHT22;38372;52.902;6.024;2024-01-30T11:22:06;10.00;99.90
52459;DHT22;38372;52.902;6.024;2024-01-30T11:24:39;10.00;99.90
52459;DHT22;38372;52.902;6.024;2024-01-30T11:27:09;10.00;99.90
52459;DHT22;38372;52.902;6.024;2024-01-30T11:29:35;9.90;99.90
52459;DHT22;38372;52.902;6.024;2024-01-30T11:32:02;9.90;99.90
52459;DHT22;38372;52.902;6.024;2024-01-30T11:34:28;9.80;99.90
52459;DHT22;38372;52.902;6.024;2024-01-30T11:37:03;9.80;99.90
52459;DHT22;38372;52.902;6.024;2024-01-30T11:39:32;9.70;99.90
52459;DHT22;38372;52.902;6.024;2024-01-30T11:41:59;9.70;99.90
52459;DHT22;38372;52.902;6.024;2024-01-30T11:44:25;9.70;99.90
52459;DHT22;38372;52.902;6.024;2024-01-30T11:46:51;9.70;99.90
52459;DHT22;38372;52.902;6.024;2024-01-30T11:49:17;9.70;99.90
52459;DHT22;38372;52.902;6.024;2024-01-30T11:51:45;9.70;99.90
52459;DHT22;38372;52.902;6.024;2024-01-30T11:54:11;9.70;99.90
52459;DHT22;38372;52.902;6.024;2024-01-30T11:56:37;9.80;99.90
52459;DHT22;38372;52.902;6.024;2024-01-30T11:59:04;9.90;99.90
52459;DHT22;38372;52.902;6.024;2024-01-30T12:01:31;9.90;99.90
52459;DHT22;38372;52.902;6.024;2024-01-30T12:03:58;9.90;99.90
52459;DHT22;38372;52.902;6.024;2024-01-30T12:06:24;9.90;99.90
52459;DHT22;38372;52.902;6.024;2024-01-30T12:09:03;10.00;99.90
52459;DHT22;38372;52.902;6.024;2024-01-30T12:11:54;10.00;99.90
52459;DHT22;38372;52.902;6.024;2024-01-30T12:14:19;10.10;99.90
52459;DHT22;38372;52.902;6.024;2024-01-30T12:16:51;10.10;99.90
52459;DHT22;38372;52.902;6.024;2024-01-30T12:19:24;10.10;99.90
52459;DHT22;38372;52.902;6.024;2024-01-30T12:21:59;10.00;99.90
52459;DHT22;38372;52.902;6.024;2024-01-30T12:24:26;10.00;99.90
52459;DHT22;38372;52.902;6.024;2024-01-30T12:26:52;10.00;99.90
52459;DHT22;38372;52.902;6.024;2024-01-30T12:29:20;10.10;99.90
52459;DHT22;38372;52.902;6.024;2024-01-30T12:31:47;10.10;99.90
52459;DHT22;38372;52.902;6.024;2024-01-30T12:34:16;10.10;99.90
52459;DHT22;38372;52.902;6.024;2024-01-30T12:36:43;10.20;99.90
52459;DHT22;38372;52.902;6.024;2024-01-30T12:39:12;10.50;99.90
52459;DHT22;38372;52.902;6.024;2024-01-30T12:41:40;10.60;99.90
52459;DHT22;38372;52.902;6.024;2024-01-30T12:44:06;10.90;99.90
52459;DHT22;38372;52.902;6.024;2024-01-30T12:46:34;11.20;99.90
52459;DHT22;38372;52.902;6.024;2024-01-30T12:49:00;11.30;99.90
52459;DHT22;38372;52.902;6.024;2024-01-30T12:51:25;11.20;99.90
52459;DHT22;38372;52.902;6.024;2024-01-30T12:53:51;11.10;99.90
52459;DHT22;38372;52.902;6.024;2024-01-30T12:56:17;11.00;99.90
52459;DHT22;38372;52.902;6.024;2024-01-30T12:58:43;10.90;99.90
52459;DHT22;38372;52.902;6.024;2024-01-30T13:01:09;10.90;99.90
52459;DHT22;38372;52.902;6.024;2024-01-30T13:03:35;10.80;99.90
52459;DHT22;38372;52.902;6.024;2024-01-30T13:06:01;10.60;99.90
52459;DHT22;38372;52.902;6.024;2024-01-30T13:08:28;10.50;99.90
52459;DHT22;38372;52.902;6.024;2024-01-30T13:10:54;10.50;99.90
52459;DHT22;38372;52.902;6.024;2024-01-30T13:13:19;10.40;99.90
52459;DHT22;38372;52.902;6.024;2024-01-30T13:15:45;10.40;99.90
52459;DHT22;38372;52.902;6.024;2024-01-30T13:18:11;10.30;99.90
52459;DHT22;38372;52.902;6.024;2024-01-30T13:20:37;10.20;99.90
52459;DHT22;38372;52.902;6.024;2024-01-30T13:23:03;10.20;99.90
52459;DHT22;38372;52.902;6.024;2024-01-30T13:25:28;10.10;99.90
52459;DHT22;38372;52.902;6.024;2024-01-30T13:27:54;10.10;99.90
52459;DHT22;38372;52.902;6.024;2024-01-30T13:30:20;10.00;99.90
52459;DHT22;38372;52.902;6.024;2024-01-30T13:32:48;9.90;99.90
52459;DHT22;38372;52.902;6.024;2024-01-30T13:35:14;9.80;99.90
52459;DHT22;38372;52.902;6.024;2024-01-30T13:37:40;9.70;99.90
52459;DHT22;38372;52.902;6.024;2024-01-30T13:40:07;9.60;99.90
52459;DHT22;38372;52.902;6.024;2024-01-30T13:42:34;9.50;99.90
52459;DHT22;38372;52.902;6.024;2024-01-30T13:45:00;9.40;99.90
52459;DHT22;38372;52.902;6.024;2024-01-30T13:47:26;9.30;99.90
52459;DHT22;38372;52.902;6.024;2024-01-30T13:49:52;9.30;99.90
52459;DHT22;38372;52.902;6.024;2024-01-30T13:52:18;9.20;99.90
52459;DHT22;38372;52.902;6.024;2024-01-30T13:54:44;9.10;99.90
52459;DHT22;38372;52.902;6.024;2024-01-30T13:57:10;9.00;99.90
52459;DHT22;38372;52.902;6.024;2024-01-30T13:59:38;9.00;99.90
52459;DHT22;38372;52.902;6.024;2024-01-30T14:02:04;9.00;99.90
52459;DHT22;38372;52.902;6.024;2024-01-30T14:04:29;9.00;99.90
52459;DHT22;38372;52.902;6.024;2024-01-30T14:06:55;9.00;99.90
52459;DHT22;38372;52.902;6.024;2024-01-30T14:09:21;9.00;99.90
52459;DHT22;38372;52.902;6.024;2024-01-30T14:11:47;8.90;99.90
52459;DHT22;38372;52.902;6.024;2024-01-30T14:14:13;9.00;99.90
52459;DHT22;38372;52.902;6.024;2024-01-30T14:16:39;8.90;99.90
52459;DHT22;38372;52.902;6.024;2024-01-30T14:19:05;8.90;99.90
52459;DHT22;38372;52.902;6.024;2024-01-30T14:21:31;8.80;99.90
52459;DHT22;38372;52.902;6.024;2024-01-30T14:23:57;8.80;99.90
52459;DHT22;38372;52.902;6.024;2024-01-30T14:26:22;8.80;99.90
52459;DHT22;38372;52.902;6.024;2024-01-30T14:28:48;8.80;99.90
52459;DHT22;38372;52.902;6.024;2024-01-30T14:31:17;8.80;99.90
52459;DHT22;38372;52.902;6.024;2024-01-30T14:33:44;8.70;99.90
52459;DHT22;38372;52.902;6.024;2024-01-30T14:36:10;8.70;99.90
52459;DHT22;38372;52.902;6.024;2024-01-30T14:38:35;8.70;99.90
52459;DHT22;38372;52.902;6.024;2024-01-30T14:41:01;8.70;99.90
52459;DHT22;38372;52.902;6.024;2024-01-30T14:43:27;8.70;99.90
52459;DHT22;38372;52.902;6.024;2024-01-30T14:45:53;8.60;99.90
52459;DHT22;38372;52.902;6.024;2024-01-30T14:48:19;8.70;99.90
52459;DHT22;38372;52.902;6.024;2024-01-30T14:50:44;8.60;99.90
52459;DHT22;38372;52.902;6.024;2024-01-30T14:53:10;8.60;99.90
52459;DHT22;38372;52.902;6.024;2024-01-30T14:55:36;8.60;99.90
52459;DHT22;38372;52.902;6.024;2024-01-30T14:58:02;8.60;99.90
52459;DHT22;38372;52.902;6.024;2024-01-30T15:00:29;8.60;99.90
52459;DHT22;38372;52.902;6.024;2024-01-30T15:02:55;8.60;99.90
52459;DHT22;38372;52.902;6.024;2024-01-30T15:05:21;8.60;99.90
52459;DHT22;38372;52.902;6.024;2024-01-30T15:07:47;8.50;99.90
52459;DHT22;38372;52.902;6.024;2024-01-30T15:10:13;8.50;99.90
52459;DHT22;38372;52.902;6.024;2024-01-30T15:12:39;8.50;99.90
52459;DHT22;38372;52.902;6.024;2024-01-30T15:15:07;8.50;99.90
52459;DHT22;38372;52.902;6.024;2024-01-30T15:17:33;8.50;99.90
52459;DHT22;38372;52.902;6.024;2024-01-30T15:19:59;8.50;99.90
52459;DHT22;38372;52.902;6.024;2024-01-30T15:22:26;8.40;99.90
52459;DHT22;38372;52.902;6.024;2024-01-30T15:24:52;8.40;99.90
52459;DHT22;38372;52.902;6.024;2024-01-30T15:27:17;8.40;99.90
52459;DHT22;38372;52.902;6.024;2024-01-30T15:29:45;8.40;99.90
52459;DHT22;38372;52.902;6.024;2024-01-30T15:32:11;8.40;99.90
52459;DHT22;38372;52.902;6.024;2024-01-30T15:34:37;8.30;99.90
52459;DHT22;38372;52.902;6.024;2024-01-30T15:37:03;8.30;99.90
52459;DHT22;38372;52.902;6.024;2024-01-30T15:39:29;8.30;99.90
52459;DHT22;38372;52.902;6.024;2024-01-30T15:41:55;8.30;99.90